Time;durP1;ratioP1;P1;durP2;ratioP2;P2;SDS_P1;SDS_P2;PMS_P1;PMS_P2;Temp;Humidity;BMP_temperature;BMP_pressure;BME280_temperature;BME280_humidity;BME280_pressure;Samples;Min_cycle;Max_cycle;Signal;HPM_P1;HPM_P2
2023/10/27 00:01:43;;;;;;;25.38;10.23;;;12.80;99.90;;;;;;5006821;28;20140;-67
2023/10/27 00:04:09;;;;;;;21.23;9.00;;;12.80;99.90;;;;;;5005591;28;20096;-67
2023/10/27 00:06:35;;;;;;;17.30;8.38;;;12.80;99.90;;;;;;5003844;28;20034;-66
2023/10/27 00:09:02;;;;;;;19.10;9.00;;;12.80;99.90;;;;;;5002946;28;20042;-66
2023/10/27 00:11:28;;;;;;;19.67;8.75;;;12.80;99.90;;;;;;5006390;28;20033;-66
2023/10/27 00:13:55;;;;;;;22.98;10.18;;;12.80;99.90;;;;;;5006188;28;20040;-67
2023/10/27 00:16:21;;;;;;;21.42;9.40;;;12.80;99.90;;;;;;5005861;28;20180;-67
2023/10/27 00:18:47;;;;;;;20.52;8.25;;;12.80;99.90;;;;;;5006210;28;20052;-66
2023/10/27 00:21:12;;;;;;;20.52;8.75;;;12.80;99.90;;;;;;5006499;28;20042;-66
2023/10/27 00:23:38;;;;;;;22.63;9.20;;;12.80;99.90;;;;;;4998891;28;20100;-67
2023/10/27 00:26:05;;;;;;;17.42;7.95;;;12.80;99.90;;;;;;5006231;28;20117;-66
2023/10/27 00:28:32;;;;;;;19.80;8.18;;;12.80;99.90;;;;;;4997670;28;20092;-67
2023/10/27 00:31:02;;;;;;;19.90;8.70;;;12.80;99.90;;;;;;5006196;28;20103;-67
2023/10/27 00:33:28;;;;;;;21.67;9.13;;;12.80;99.90;;;;;;5004369;28;20026;-67
2023/10/27 00:35:54;;;;;;;17.23;7.85;;;12.80;99.90;;;;;;5004583;28;20033;-66
2023/10/27 00:38:20;;;;;;;23.05;9.45;;;12.80;99.90;;;;;;5005859;28;20084;-66
2023/10/27 00:40:46;;;;;;;20.50;8.88;;;12.80;99.90;;;;;;5004430;28;20095;-67
2023/10/27 00:43:16;;;;;;;18.73;8.52;;;12.80;99.90;;;;;;5005067;28;20449;-66
2023/10/27 00:46:00;;;;;;;16.85;7.70;;;12.80;99.90;;;;;;5005687;28;20040;-66
2023/10/27 00:48:26;;;;;;;21.00;8.75;;;12.80;99.90;;;;;;5006031;28;20372;-66
2023/10/27 00:50:52;;;;;;;15.50;7.78;;;12.80;99.90;;;;;;5004524;28;20040;-67
2023/10/27 00:53:20;;;;;;;17.65;7.40;;;12.80;99.90;;;;;;5033207;28;20037;-67
2023/10/27 00:55:46;;;;;;;15.93;7.82;;;12.80;99.90;;;;;;5003980;28;20080;-67
2023/10/27 00:58:13;;;;;;;19.25;7.72;;;12.80;99.90;;;;;;5004119;28;20132;-66
2023/10/27 01:00:39;;;;;;;18.25;8.38;;;12.80;99.90;;;;;;5004619;28;20061;-66
2023/10/27 01:03:05;;;;;;;16.88;7.60;;;12.80;99.90;;;;;;5005610;28;20135;-67
2023/10/27 01:05:31;;;;;;;16.47;7.37;;;12.80;99.90;;;;;;5000944;28;20041;-67
2023/10/27 01:07:57;;;;;;;21.58;9.05;;;12.80;99.90;;;;;;5005212;28;20140;-67
2023/10/27 01:10:24;;;;;;;19.77;8.55;;;12.80;99.90;;;;;;5005562;28;20109;-67
2023/10/27 01:12:50;;;;;;;23.35;9.55;;;12.80;99.90;;;;;;5005063;28;20905;-66
2023/10/27 01:15:17;;;;;;;18.65;7.82;;;12.80;99.90;;;;;;5037002;28;20041;-67
2023/10/27 01:17:43;;;;;;;19.60;8.80;;;12.80;99.90;;;;;;5004960;28;20513;-67
2023/10/27 01:20:10;;;;;;;19.80;9.02;;;12.80;99.90;;;;;;5003577;28;20042;-66
2023/10/27 01:22:49;;;;;;;17.40;8.20;;;12.80;99.90;;;;;;5004003;28;20116;-67
2023/10/27 01:25:16;;;;;;;23.05;8.52;;;12.80;99.90;;;;;;5002364;28;20038;-67
2023/10/27 01:27:42;;;;;;;19.90;8.60;;;12.80;99.90;;;;;;5003230;28;20026;-67
2023/10/27 01:30:09;;;;;;;20.90;9.05;;;12.80;99.90;;;;;;5004992;28;20045;-67
2023/10/27 01:32:40;;;;;;;20.85;8.75;;;12.80;99.90;;;;;;5002041;28;20047;-66
2023/10/27 01:35:07;;;;;;;23.30;9.40;;;12.80;99.90;;;;;;5003498;28;20030;-66
2023/10/27 01:37:33;;;;;;;23.55;9.65;;;12.80;99.90;;;;;;5036469;28;20030;-67
2023/10/27 01:39:59;;;;;;;21.17;8.90;;;12.80;99.90;;;;;;5004868;28;20049;-67
2023/10/27 01:42:25;;;;;;;18.58;8.80;;;12.70;99.90;;;;;;5003320;28;20045;-67
2023/10/27 01:44:52;;;;;;;21.30;9.05;;;12.70;99.90;;;;;;5002737;28;20038;-66
2023/10/27 01:47:17;;;;;;;20.25;8.57;;;12.70;99.90;;;;;;5003506;28;20434;-67
2023/10/27 01:49:43;;;;;;;15.27;7.60;;;12.70;99.90;;;;;;4998141;28;20056;-66
2023/10/27 01:52:09;;;;;;;21.70;9.98;;;12.80;99.90;;;;;;5003208;28;20034;-67
2023/10/27 01:54:35;;;;;;;19.13;8.88;;;12.80;99.90;;;;;;5001794;28;20029;-67
2023/10/27 01:57:00;;;;;;;20.98;8.63;;;12.80;99.90;;;;;;5035975;28;20141;-67
2023/10/27 01:59:28;;;;;;;14.77;7.72;;;12.80;99.90;;;;;;5002352;28;20040;-66
2023/10/27 02:01:54;;;;;;;17.20;8.23;;;12.70;99.90;;;;;;5036167;28;20111;-66
2023/10/27 02:04:20;;;;;;;21.33;9.20;;;12.80;99.90;;;;;;5003112;28;20034;-66
2023/10/27 02:06:47;;;;;;;19.00;8.30;;;12.80;99.90;;;;;;5019861;28;20033;-66
2023/10/27 02:09:12;;;;;;;15.95;7.07;;;12.80;99.90;;;;;;4996969;28;20042;-66
2023/10/27 02:11:38;;;;;;;22.10;9.65;;;12.80;99.90;;;;;;5003083;28;20068;-66
2023/10/27 02:14:04;;;;;;;19.80;8.80;;;12.80;99.90;;;;;;5002494;28;20045;-67
2023/10/27 02:16:30;;;;;;;15.98;7.45;;;12.80;99.90;;;;;;5003934;28;20041;-67
2023/10/27 02:18:56;;;;;;;18.75;8.00;;;12.80;99.90;;;;;;5002611;28;20048;-66
2023/10/27 02:21:21;;;;;;;17.17;7.35;;;12.80;99.90;;;;;;5002713;28;20044;-66
2023/10/27 02:23:47;;;;;;;16.30;7.90;;;12.80;99.90;;;;;;5002620;28;20402;-66
2023/10/27 02:26:13;;;;;;;19.23;8.68;;;12.80;99.90;;;;;;5003909;28;20512;-67
2023/10/27 02:28:39;;;;;;;18.52;8.55;;;12.80;99.90;;;;;;5004138;28;20037;-67
2023/10/27 02:31:05;;;;;;;17.80;8.00;;;12.80;99.90;;;;;;5001627;28;20034;-67
2023/10/27 02:33:31;;;;;;;23.58;9.20;;;12.90;99.90;;;;;;5004163;28;20486;-67
2023/10/27 02:35:56;;;;;;;18.38;8.63;;;12.90;99.90;;;;;;5004882;28;20574;-66
2023/10/27 02:38:22;;;;;;;21.95;9.43;;;12.90;99.90;;;;;;5004556;28;20112;-67
2023/10/27 02:40:48;;;;;;;20.17;8.27;;;12.90;99.90;;;;;;5004850;28;20053;-66
2023/10/27 02:43:14;;;;;;;24.48;9.23;;;12.90;99.90;;;;;;5004705;28;20042;-66
2023/10/27 02:45:39;;;;;;;19.48;8.23;;;12.90;99.90;;;;;;5003338;28;20045;-67
2023/10/27 02:48:06;;;;;;;15.60;8.00;;;12.80;99.90;;;;;;5003503;28;20045;-66
2023/10/27 02:50:31;;;;;;;19.98;8.60;;;12.90;99.90;;;;;;5036591;28;20018;-67
2023/10/27 02:52:57;;;;;;;22.83;9.07;;;12.80;99.90;;;;;;5002974;28;20568;-67
2023/10/27 02:55:23;;;;;;;22.63;8.05;;;12.80;99.90;;;;;;5003367;28;20123;-67
2023/10/27 02:57:49;;;;;;;17.92;8.10;;;12.80;99.90;;;;;;5004733;28;20029;-67
2023/10/27 03:00:15;;;;;;;19.77;9.20;;;12.80;99.90;;;;;;5003244;28;20129;-67
2023/10/27 03:02:40;;;;;;;18.15;7.82;;;12.80;99.90;;;;;;5004742;28;20076;-66
2023/10/27 03:05:08;;;;;;;18.73;8.00;;;12.90;99.90;;;;;;5004617;28;20033;-66
2023/10/27 03:07:34;;;;;;;16.48;7.55;;;12.80;99.90;;;;;;5006343;28;20108;-66
2023/10/27 03:10:00;;;;;;;16.98;7.78;;;12.80;99.90;;;;;;5006897;28;20745;-67
2023/10/27 03:12:27;;;;;;;21.58;8.95;;;12.80;99.90;;;;;;5008085;28;20406;-67
2023/10/27 03:14:53;;;;;;;14.57;7.03;;;12.80;99.90;;;;;;5006456;28;20029;-66
2023/10/27 03:17:18;;;;;;;21.13;9.38;;;12.80;99.90;;;;;;5038043;28;20034;-66
2023/10/27 03:19:44;;;;;;;20.65;8.27;;;12.80;99.90;;;;;;5005966;28;20029;-66
2023/10/27 03:22:10;;;;;;;19.13;8.63;;;12.80;99.90;;;;;;5002140;28;20038;-67
2023/10/27 03:24:36;;;;;;;24.08;9.57;;;12.80;99.90;;;;;;5006578;28;20029;-66
2023/10/27 03:27:02;;;;;;;15.93;7.18;;;12.80;99.90;;;;;;5006196;28;20071;-67
2023/10/27 03:29:27;;;;;;;18.27;8.65;;;12.70;99.90;;;;;;5006609;28;20040;-66
2023/10/27 03:31:53;;;;;;;17.02;7.85;;;12.70;99.90;;;;;;5006659;28;20747;-66
2023/10/27 03:34:19;;;;;;;20.13;8.57;;;12.70;99.90;;;;;;5006355;28;20034;-67
2023/10/27 03:36:45;;;;;;;18.45;7.90;;;12.70;99.90;;;;;;5008183;28;20034;-67
2023/10/27 03:39:10;;;;;;;19.38;7.97;;;12.70;99.90;;;;;;5006444;28;20506;-66
2023/10/27 03:41:36;;;;;;;18.42;8.50;;;12.80;99.90;;;;;;5006475;28;20379;-66
2023/10/27 03:44:04;;;;;;;16.05;6.80;;;12.80;99.90;;;;;;5007779;28;20041;-66
2023/10/27 03:46:30;;;;;;;20.77;9.23;;;12.70;99.90;;;;;;5007321;28;20041;-66
2023/10/27 03:48:55;;;;;;;17.60;8.07;;;12.80;99.90;;;;;;5007792;28;20034;-67
2023/10/27 03:51:21;;;;;;;20.02;8.32;;;12.80;99.90;;;;;;5005928;28;20038;-66
2023/10/27 03:53:47;;;;;;;18.40;8.32;;;12.70;99.90;;;;;;5001842;28;20034;-66
2023/10/27 03:56:13;;;;;;;20.98;8.85;;;12.70;99.90;;;;;;5002074;28;20037;-66
2023/10/27 03:58:38;;;;;;;20.55;8.88;;;12.70;99.90;;;;;;5006403;28;20811;-66
2023/10/27 04:01:05;;;;;;;18.27;7.35;;;12.70;99.90;;;;;;5006438;28;20482;-66
2023/10/27 04:03:31;;;;;;;26.60;9.65;;;12.70;99.90;;;;;;5004206;28;20026;-67
2023/10/27 04:05:58;;;;;;;19.05;8.57;;;12.70;99.90;;;;;;5003027;28;20041;-67
2023/10/27 04:08:23;;;;;;;25.25;9.50;;;12.70;99.90;;;;;;5005079;28;20037;-66
2023/10/27 04:10:49;;;;;;;19.98;8.18;;;12.70;99.90;;;;;;5005714;28;20026;-67
2023/10/27 04:13:15;;;;;;;25.98;10.43;;;12.70;99.90;;;;;;5004167;28;20430;-67
2023/10/27 04:15:44;;;;;;;20.90;9.98;;;12.70;99.90;;;;;;5006857;28;20022;-66
2023/10/27 04:18:10;;;;;;;23.10;9.75;;;12.70;99.90;;;;;;5005391;28;20120;-66
2023/10/27 04:20:38;;;;;;;20.23;8.77;;;12.70;99.90;;;;;;5006177;28;20054;-67
2023/10/27 04:23:04;;;;;;;29.27;10.15;;;12.70;99.90;;;;;;5002318;28;20116;-66
2023/10/27 04:25:30;;;;;;;26.02;9.48;;;12.70;99.90;;;;;;5000388;28;20121;-67
2023/10/27 04:27:56;;;;;;;26.38;9.95;;;12.70;99.90;;;;;;5002706;28;20025;-67
2023/10/27 04:30:21;;;;;;;24.00;9.35;;;12.70;99.90;;;;;;5006065;28;20451;-67
2023/10/27 04:32:48;;;;;;;25.92;10.05;;;12.60;99.90;;;;;;5002448;28;20134;-67
2023/10/27 04:35:14;;;;;;;27.42;9.35;;;12.60;99.90;;;;;;5003168;28;20464;-67
2023/10/27 04:37:39;;;;;;;31.13;10.02;;;12.60;99.90;;;;;;4998838;28;20030;-66
2023/10/27 04:40:06;;;;;;;22.55;9.00;;;12.60;99.90;;;;;;5006221;28;20044;-67
2023/10/27 04:42:32;;;;;;;24.60;9.13;;;12.60;99.90;;;;;;5005741;28;20034;-66
2023/10/27 04:44:57;;;;;;;30.00;9.75;;;12.60;99.90;;;;;;5005206;28;20576;-66
2023/10/27 04:47:23;;;;;;;23.25;9.25;;;12.60;99.90;;;;;;5005303;28;20073;-67
2023/10/27 04:49:49;;;;;;;30.70;10.85;;;12.60;99.90;;;;;;5004363;28;20041;-67
2023/10/27 04:52:14;;;;;;;27.00;10.55;;;12.60;99.90;;;;;;5005814;28;20042;-67
2023/10/27 04:54:40;;;;;;;24.55;9.07;;;12.60;99.90;;;;;;5005685;28;20145;-67
2023/10/27 04:57:06;;;;;;;26.05;10.00;;;12.50;99.90;;;;;;5005874;28;20037;-66
2023/10/27 04:59:32;;;;;;;24.50;9.52;;;12.50;99.90;;;;;;5005570;28;20032;-67
2023/10/27 05:01:58;;;;;;;26.35;9.50;;;12.60;99.90;;;;;;5005894;28;20143;-67
2023/10/27 05:04:25;;;;;;;27.58;11.15;;;12.60;99.90;;;;;;5005515;28;20689;-67
2023/10/27 05:06:51;;;;;;;26.17;9.98;;;12.60;99.90;;;;;;5005396;28;20390;-67
2023/10/27 05:09:20;;;;;;;28.42;10.20;;;12.60;99.90;;;;;;5005736;28;20026;-67
2023/10/27 05:11:46;;;;;;;29.92;10.25;;;12.60;99.90;;;;;;5002779;28;20064;-67
2023/10/27 05:14:13;;;;;;;28.42;10.60;;;12.60;99.90;;;;;;5004571;28;20034;-66
2023/10/27 05:16:39;;;;;;;28.00;10.52;;;12.60;99.90;;;;;;5005330;28;20041;-67
2023/10/27 05:19:05;;;;;;;24.75;10.27;;;12.60;99.90;;;;;;5004991;28;20061;-67
2023/10/27 05:21:31;;;;;;;28.70;10.90;;;12.60;99.90;;;;;;5005333;28;20033;-67
2023/10/27 05:23:57;;;;;;;30.85;10.30;;;12.60;99.90;;;;;;4987189;28;20048;-66
2023/10/27 05:26:24;;;;;;;28.17;10.10;;;12.50;99.90;;;;;;5004722;28;20552;-67
2023/10/27 05:28:51;;;;;;;27.08;10.43;;;12.60;99.90;;;;;;5004437;28;20037;-67
2023/10/27 05:31:17;;;;;;;29.30;10.32;;;12.60;99.90;;;;;;5004298;28;20437;-67
2023/10/27 05:33:43;;;;;;;29.80;11.02;;;12.60;99.90;;;;;;5004274;28;20030;-67
2023/10/27 05:36:08;;;;;;;27.15;10.20;;;12.60;99.90;;;;;;5004474;28;20213;-67
2023/10/27 05:38:34;;;;;;;23.67;9.65;;;12.50;99.90;;;;;;5004715;28;20128;-67
2023/10/27 05:41:00;;;;;;;26.42;10.30;;;12.50;99.90;;;;;;5004414;28;20042;-67
2023/10/27 05:43:26;;;;;;;22.00;9.45;;;12.50;99.90;;;;;;5004287;28;20080;-66
2023/10/27 05:45:52;;;;;;;26.73;10.45;;;12.50;99.90;;;;;;5004064;28;20034;-66
2023/10/27 05:48:18;;;;;;;21.33;8.48;;;12.60;99.90;;;;;;5000593;28;20037;-67
2023/10/27 05:50:44;;;;;;;28.63;10.73;;;12.60;99.90;;;;;;5005139;28;20117;-67
2023/10/27 05:53:10;;;;;;;27.88;10.82;;;12.60;99.90;;;;;;5004301;28;20058;-67
2023/10/27 05:55:35;;;;;;;29.30;11.13;;;12.60;99.90;;;;;;5003297;28;20081;-67
2023/10/27 05:58:01;;;;;;;25.10;10.63;;;12.60;99.90;;;;;;5004487;28;20462;-67
2023/10/27 06:00:29;;;;;;;28.95;11.02;;;12.60;99.90;;;;;;5003742;28;20183;-67
2023/10/27 06:02:55;;;;;;;28.92;9.93;;;12.60;99.90;;;;;;5004352;28;20029;-67
2023/10/27 06:05:22;;;;;;;23.33;9.70;;;12.50;99.90;;;;;;5003767;28;20042;-67
2023/10/27 06:07:48;;;;;;;24.67;10.00;;;12.60;99.90;;;;;;5004045;28;20034;-67
2023/10/27 06:10:14;;;;;;;23.10;9.52;;;12.60;99.90;;;;;;5004206;28;20090;-67
2023/10/27 06:12:40;;;;;;;24.67;10.32;;;12.60;99.90;;;;;;5003506;28;20030;-67
2023/10/27 06:15:06;;;;;;;19.10;8.13;;;12.60;99.90;;;;;;5003421;28;20026;-67
2023/10/27 06:17:32;;;;;;;24.08;9.98;;;12.60;99.90;;;;;;5003604;28;20040;-67
2023/10/27 06:20:01;;;;;;;23.60;9.70;;;12.60;99.90;;;;;;5003340;28;20034;-67
2023/10/27 06:22:27;;;;;;;22.85;10.10;;;12.70;99.90;;;;;;5003469;28;20042;-67
2023/10/27 06:24:52;;;;;;;25.90;10.13;;;12.60;99.90;;;;;;5004215;28;20033;-67
2023/10/27 06:27:18;;;;;;;22.85;9.10;;;12.60;99.90;;;;;;5004055;28;20084;-67
2023/10/27 06:29:44;;;;;;;24.10;9.95;;;12.60;99.90;;;;;;5003983;28;20045;-67
2023/10/27 06:32:10;;;;;;;23.08;9.55;;;12.60;99.90;;;;;;5004199;28;20052;-69
2023/10/27 06:34:35;;;;;;;19.02;8.82;;;12.60;99.90;;;;;;4996882;28;20472;-67
2023/10/27 06:37:02;;;;;;;25.30;9.50;;;12.60;99.90;;;;;;5003806;28;20121;-66
2023/10/27 06:39:28;;;;;;;20.67;8.88;;;12.60;99.90;;;;;;5018080;28;21241;-67
2023/10/27 06:41:54;;;;;;;22.48;9.25;;;12.60;99.90;;;;;;5010884;28;20054;-67
2023/10/27 06:44:20;;;;;;;21.33;9.20;;;12.70;99.90;;;;;;5003138;28;20038;-67
2023/10/27 06:46:45;;;;;;;22.73;8.52;;;12.60;99.90;;;;;;5000915;28;20026;-67
2023/10/27 06:49:13;;;;;;;25.02;9.15;;;12.60;99.90;;;;;;4996904;28;20095;-67
2023/10/27 06:51:39;;;;;;;21.58;9.30;;;12.60;99.90;;;;;;5015961;28;20026;-67
2023/10/27 06:54:05;;;;;;;24.92;9.45;;;12.70;99.90;;;;;;5002800;28;20036;-67
2023/10/27 06:56:30;;;;;;;22.15;9.48;;;12.70;99.90;;;;;;5003374;28;20018;-66
2023/10/27 06:58:57;;;;;;;19.20;8.27;;;12.70;99.90;;;;;;5003436;28;20077;-66
2023/10/27 07:01:23;;;;;;;19.38;8.32;;;12.70;99.90;;;;;;4995926;28;20096;-68
2023/10/27 07:03:50;;;;;;;17.80;8.38;;;12.80;99.90;;;;;;4997275;28;20037;-68
2023/10/27 07:06:17;;;;;;;19.75;8.38;;;12.80;99.90;;;;;;5003000;28;20045;-68
2023/10/27 07:08:46;;;;;;;16.95;7.60;;;12.80;99.90;;;;;;5003681;28;20033;-68
2023/10/27 07:11:13;;;;;;;19.92;8.75;;;12.80;99.90;;;;;;5003394;28;20029;-68
2023/10/27 07:13:38;;;;;;;19.63;7.63;;;12.80;99.90;;;;;;5002885;28;20108;-69
2023/10/27 07:16:04;;;;;;;27.98;10.30;;;12.80;99.90;;;;;;5003919;28;20700;-68
2023/10/27 07:18:30;;;;;;;20.95;8.95;;;12.80;99.90;;;;;;5003501;28;20036;-68
2023/10/27 07:20:56;;;;;;;19.42;8.98;;;12.80;99.90;;;;;;5003509;28;20044;-67
2023/10/27 07:23:23;;;;;;;17.95;8.15;;;12.80;99.90;;;;;;4997346;28;20034;-68
2023/10/27 07:25:49;;;;;;;32.53;9.98;;;12.90;99.90;;;;;;5002902;28;20029;-69
2023/10/27 07:28:15;;;;;;;21.35;8.52;;;12.90;99.90;;;;;;5003152;28;20084;-68
2023/10/27 07:30:41;;;;;;;23.00;9.88;;;12.90;99.90;;;;;;5002991;28;20097;-69
2023/10/27 07:33:10;;;;;;;24.23;8.90;;;12.90;99.90;;;;;;5003173;28;20113;-68
2023/10/27 07:35:35;;;;;;;19.02;8.50;;;12.90;99.90;;;;;;5002980;28;20367;-68
2023/10/27 07:38:02;;;;;;;19.88;7.93;;;12.90;99.90;;;;;;5003158;28;20065;-69
2023/10/27 07:40:28;;;;;;;20.02;8.27;;;12.90;99.90;;;;;;5002940;28;20731;-70
2023/10/27 07:42:57;;;;;;;21.33;8.82;;;12.90;99.90;;;;;;5002640;28;20030;-68
2023/10/27 07:45:24;;;;;;;19.20;8.45;;;12.90;99.90;;;;;;5003018;28;20602;-68
2023/10/27 07:47:49;;;;;;;21.23;8.48;;;12.90;99.90;;;;;;5003117;28;20041;-68
2023/10/27 07:50:15;;;;;;;17.15;7.45;;;12.90;99.90;;;;;;5002996;28;20478;-68
2023/10/27 07:52:41;;;;;;;21.80;8.55;;;13.00;99.90;;;;;;5000983;28;20483;-68
2023/10/27 07:55:07;;;;;;;16.13;7.80;;;12.90;99.90;;;;;;5006010;28;20041;-68
2023/10/27 07:57:34;;;;;;;24.08;9.00;;;13.00;99.90;;;;;;5006866;28;20041;-67
2023/10/27 08:00:02;;;;;;;24.10;10.13;;;13.00;99.90;;;;;;5005962;28;20124;-67
2023/10/27 08:02:33;;;;;;;23.85;9.10;;;13.00;99.90;;;;;;5001544;28;20030;-67
2023/10/27 08:04:59;;;;;;;23.00;9.23;;;13.00;99.90;;;;;;5005908;28;20037;-67
2023/10/27 08:07:24;;;;;;;21.10;8.93;;;13.00;99.90;;;;;;5006285;28;20143;-67
2023/10/27 08:09:50;;;;;;;18.48;7.65;;;13.10;99.90;;;;;;5005202;28;20022;-67
2023/10/27 08:12:16;;;;;;;17.30;7.60;;;13.10;99.90;;;;;;5006282;28;20026;-68
2023/10/27 08:14:42;;;;;;;19.13;8.07;;;13.10;99.90;;;;;;5006300;28;20026;-67
2023/10/27 08:17:08;;;;;;;19.75;8.88;;;13.10;99.90;;;;;;5006500;28;20099;-70
2023/10/27 08:19:34;;;;;;;19.77;9.35;;;13.10;99.90;;;;;;5005886;28;20045;-68
2023/10/27 08:21:59;;;;;;;24.23;8.68;;;13.10;99.90;;;;;;5005101;28;20029;-67
2023/10/27 08:24:25;;;;;;;20.42;8.57;;;13.20;99.90;;;;;;5003889;28;20109;-68
2023/10/27 08:26:51;;;;;;;18.35;7.72;;;13.20;99.90;;;;;;5006649;28;20057;-67
2023/10/27 08:29:17;;;;;;;18.13;8.48;;;13.20;99.90;;;;;;5002129;28;20057;-64
2023/10/27 08:31:42;;;;;;;20.13;9.02;;;13.20;99.90;;;;;;5004562;28;20030;-67
2023/10/27 08:34:11;;;;;;;22.73;9.65;;;13.20;99.90;;;;;;5001838;28;20030;-67
2023/10/27 08:36:38;;;;;;;19.13;9.32;;;13.20;99.90;;;;;;5003282;28;20117;-67
2023/10/27 08:39:05;;;;;;;19.83;8.05;;;13.10;99.90;;;;;;5005590;28;20040;-67
2023/10/27 08:41:33;;;;;;;20.75;8.25;;;13.10;99.90;;;;;;5005894;28;20064;-68
2023/10/27 08:43:59;;;;;;;18.48;8.35;;;13.10;99.90;;;;;;5002741;28;20038;-67
2023/10/27 08:46:26;;;;;;;21.65;9.60;;;13.10;99.90;;;;;;5002583;28;20080;-67
2023/10/27 08:48:51;;;;;;;17.17;8.00;;;13.10;99.90;;;;;;4996737;28;20034;-69
2023/10/27 08:51:18;;;;;;;17.67;7.43;;;13.10;99.90;;;;;;5004132;28;20045;-67
2023/10/27 08:53:44;;;;;;;17.65;7.65;;;13.10;99.90;;;;;;5004340;28;20030;-68
2023/10/27 08:56:13;;;;;;;15.40;7.22;;;13.20;99.90;;;;;;5005743;28;20154;-67
2023/10/27 08:58:47;;;;;;;20.33;8.30;;;13.20;99.90;;;;;;5002804;28;20117;-67
2023/10/27 09:01:13;;;;;;;19.40;8.15;;;13.20;99.90;;;;;;5003421;28;20124;-67
2023/10/27 09:03:39;;;;;;;18.27;8.15;;;13.20;99.90;;;;;;5003774;28;20626;-69
2023/10/27 09:06:06;;;;;;;17.55;8.20;;;13.20;99.90;;;;;;5004788;28;20034;-67
2023/10/27 09:08:32;;;;;;;20.23;8.35;;;13.20;99.90;;;;;;5005154;28;20040;-65
2023/10/27 09:10:58;;;;;;;17.70;7.40;;;13.20;99.90;;;;;;5001616;28;20053;-67
2023/10/27 09:13:24;;;;;;;18.23;8.45;;;13.20;99.90;;;;;;5002129;28;20838;-67
2023/10/27 09:15:51;;;;;;;16.38;8.00;;;13.30;99.90;;;;;;5005223;28;20092;-67
2023/10/27 09:18:18;;;;;;;21.63;8.18;;;13.20;99.90;;;;;;5004877;28;20034;-67
2023/10/27 09:20:49;;;;;;;14.82;7.43;;;13.20;99.90;;;;;;5004493;28;20034;-67
2023/10/27 09:23:16;;;;;;;15.45;7.05;;;13.20;99.90;;;;;;5001441;28;20061;-66
2023/10/27 09:25:42;;;;;;;18.48;8.57;;;13.30;99.90;;;;;;5000521;28;20045;-66
2023/10/27 09:28:08;;;;;;;18.48;7.85;;;13.30;99.90;;;;;;5001018;28;20843;-67
2023/10/27 09:30:37;;;;;;;16.90;7.32;;;13.30;99.90;;;;;;5000794;28;20859;-67
2023/10/27 09:33:25;;;;;;;17.90;7.75;;;13.30;99.90;;;;;;5005169;28;20052;-67
2023/10/27 09:35:52;;;;;;;18.63;7.78;;;13.30;99.90;;;;;;5001484;28;20648;-67
2023/10/27 09:38:20;;;;;;;17.17;8.23;;;13.40;99.90;;;;;;5002595;28;20026;-66
2023/10/27 09:40:46;;;;;;;18.48;7.95;;;13.40;99.90;;;;;;5004615;28;20475;-67
2023/10/27 09:43:35;;;;;;;18.38;8.23;;;13.50;99.90;;;;;;5004050;28;20104;-67
2023/10/27 09:46:05;;;;;;;14.88;7.57;;;13.50;99.90;;;;;;5003183;28;20045;-66
2023/10/27 09:48:35;;;;;;;17.95;8.05;;;13.50;99.90;;;;;;5002862;28;20053;-65
2023/10/27 09:51:10;;;;;;;15.35;6.88;;;13.60;99.90;;;;;;5003888;28;20799;-66
2023/10/27 09:53:37;;;;;;;13.40;7.25;;;13.60;99.90;;;;;;5004394;28;20044;-66
2023/10/27 09:56:03;;;;;;;13.02;7.20;;;13.60;99.90;;;;;;5004600;28;20112;-66
2023/10/27 09:58:34;;;;;;;15.32;7.15;;;13.60;99.90;;;;;;5004222;28;20036;-66
2023/10/27 10:01:04;;;;;;;13.82;6.88;;;13.60;99.90;;;;;;5000743;28;20443;-66
2023/10/27 10:03:31;;;;;;;16.67;7.65;;;13.60;99.90;;;;;;5003098;28;20038;-67
2023/10/27 10:06:15;;;;;;;16.70;7.93;;;13.60;99.90;;;;;;5003929;28;20037;-67
2023/10/27 10:09:01;;;;;;;15.68;7.82;;;13.70;99.90;;;;;;4998684;28;20072;-66
2023/10/27 10:11:27;;;;;;;15.02;6.93;;;13.60;99.90;;;;;;5002459;28;20066;-67
2023/10/27 10:13:53;;;;;;;14.60;6.93;;;13.60;99.90;;;;;;4998653;28;20772;-67
2023/10/27 10:16:20;;;;;;;16.02;7.50;;;13.60;99.90;;;;;;5001570;28;20038;-67
2023/10/27 10:18:48;;;;;;;14.98;6.78;;;13.60;99.90;;;;;;5004096;28;20136;-67
2023/10/27 10:21:43;;;;;;;17.83;7.43;;;13.60;99.90;;;;;;5004342;28;20045;-67
2023/10/27 10:24:09;;;;;;;13.13;6.35;;;13.60;99.90;;;;;;5004521;28;20181;-67
2023/10/27 10:27:05;;;;;;;14.98;7.47;;;13.60;99.90;;;;;;5004008;28;20696;-66
2023/10/27 10:29:32;;;;;;;12.52;6.43;;;13.60;99.90;;;;;;5003420;28;20029;-67
2023/10/27 10:32:33;;;;;;;17.33;7.22;;;13.60;99.90;;;;;;4999843;28;20034;-67
2023/10/27 10:35:21;;;;;;;14.73;6.93;;;13.60;99.90;;;;;;5000890;28;20034;-66
2023/10/27 10:37:47;;;;;;;15.07;6.68;;;13.60;99.90;;;;;;5000515;28;20033;-66
2023/10/27 10:40:17;;;;;;;12.48;6.20;;;13.60;99.90;;;;;;5003841;28;20037;-67
2023/10/27 10:43:23;;;;;;;12.68;6.35;;;13.60;99.90;;;;;;5002370;28;20071;-67
2023/10/27 10:45:51;;;;;;;14.25;7.00;;;13.60;99.90;;;;;;5000490;28;20107;-67
2023/10/27 10:48:18;;;;;;;12.02;5.78;;;13.60;99.90;;;;;;4999437;28;20044;-66
2023/10/27 10:50:45;;;;;;;13.68;6.18;;;13.70;99.90;;;;;;4999495;28;20033;-67
2023/10/27 10:53:17;;;;;;;15.00;6.57;;;13.60;99.90;;;;;;5001647;28;20046;-66
2023/10/27 10:55:45;;;;;;;13.52;6.65;;;13.60;99.90;;;;;;4996472;28;20112;-67
2023/10/27 10:58:18;;;;;;;12.45;5.78;;;13.60;99.90;;;;;;5000612;28;20069;-65
2023/10/27 11:00:44;;;;;;;11.63;6.35;;;13.60;99.90;;;;;;5000778;28;20050;-66
2023/10/27 11:03:11;;;;;;;17.73;7.85;;;13.60;99.90;;;;;;5001079;28;20029;-66
2023/10/27 11:05:36;;;;;;;14.23;6.68;;;13.60;99.90;;;;;;5000122;28;20430;-66
2023/10/27 11:08:03;;;;;;;15.18;6.85;;;13.60;99.90;;;;;;5001875;28;20037;-66
2023/10/27 11:10:29;;;;;;;16.20;7.80;;;13.60;99.90;;;;;;5002923;28;20031;-67
2023/10/27 11:13:00;;;;;;;15.20;7.10;;;13.60;99.90;;;;;;5003158;28;20418;-66
2023/10/27 11:15:48;;;;;;;13.57;6.60;;;13.50;99.90;;;;;;4997336;28;20030;-66
2023/10/27 11:18:15;;;;;;;13.10;6.22;;;13.50;99.90;;;;;;4994963;28;20046;-67
2023/10/27 11:20:43;;;;;;;14.88;7.32;;;13.50;99.90;;;;;;4996247;28;20054;-66
2023/10/27 11:23:14;;;;;;;13.70;6.18;;;13.50;99.90;;;;;;4997398;28;20034;-67
2023/10/27 11:25:41;;;;;;;15.23;6.55;;;13.40;99.90;;;;;;4999183;28;20042;-66
2023/10/27 11:28:24;;;;;;;14.82;6.97;;;13.40;99.90;;;;;;5001781;28;20044;-66
2023/10/27 11:31:13;;;;;;;13.88;7.05;;;13.40;99.90;;;;;;5003773;28;20037;-66
2023/10/27 11:34:04;;;;;;;12.02;6.57;;;13.40;99.90;;;;;;4997812;28;20092;-66
2023/10/27 11:36:42;;;;;;;18.52;8.23;;;13.30;99.90;;;;;;5006705;28;20088;-65
2023/10/27 11:39:20;;;;;;;13.57;6.75;;;13.30;99.90;;;;;;5007303;28;20037;-66
2023/10/27 11:42:15;;;;;;;14.65;6.43;;;13.40;99.90;;;;;;5004209;28;20479;-66
2023/10/27 11:44:44;;;;;;;19.23;6.80;;;13.30;99.90;;;;;;5009453;28;20099;-74
2023/10/27 11:47:10;;;;;;;18.20;7.03;;;13.30;99.90;;;;;;5004325;28;20048;-66
2023/10/27 11:49:35;;;;;;;14.88;6.47;;;13.30;99.90;;;;;;5007628;28;20625;-66
2023/10/27 11:52:03;;;;;;;16.30;7.72;;;13.30;99.90;;;;;;5007523;28;20041;-65
2023/10/27 11:54:28;;;;;;;16.15;7.90;;;13.30;99.90;;;;;;5006777;28;20065;-66
2023/10/27 11:56:55;;;;;;;17.25;8.20;;;13.30;99.90;;;;;;5007453;28;20080;-66
2023/10/27 11:59:25;;;;;;;16.05;6.90;;;13.30;99.90;;;;;;4999486;28;20046;-66
2023/10/27 12:01:52;;;;;;;14.63;7.07;;;13.30;99.90;;;;;;5002328;28;20084;-65
2023/10/27 12:04:18;;;;;;;14.75;6.45;;;13.30;99.90;;;;;;5004471;28;20036;-66
2023/10/27 12:06:44;;;;;;;14.57;6.97;;;13.20;99.90;;;;;;5010304;28;20030;-68
2023/10/27 12:09:12;;;;;;;15.48;7.15;;;13.20;99.90;;;;;;5002771;28;20025;-67
2023/10/27 12:11:41;;;;;;;16.15;7.40;;;13.20;99.90;;;;;;5005665;28;20125;-66
2023/10/27 12:14:07;;;;;;;17.67;7.63;;;13.20;99.90;;;;;;5002073;28;20046;-66
2023/10/27 12:16:34;;;;;;;16.80;8.27;;;13.30;99.90;;;;;;5006032;28;20045;-65
2023/10/27 12:19:01;;;;;;;15.00;7.95;;;13.30;99.90;;;;;;5001348;28;20038;-66
2023/10/27 12:21:27;;;;;;;17.27;8.90;;;13.30;99.90;;;;;;5005579;28;20056;-66
2023/10/27 12:23:53;;;;;;;18.90;8.50;;;13.30;99.90;;;;;;5006717;28;20025;-66
2023/10/27 12:26:20;;;;;;;14.02;7.93;;;13.30;99.90;;;;;;5006783;28;20030;-66
2023/10/27 12:28:46;;;;;;;14.40;6.97;;;13.30;99.90;;;;;;5006911;28;20030;-65
2023/10/27 12:31:16;;;;;;;14.27;7.80;;;13.30;99.90;;;;;;5007368;28;20115;-67
2023/10/27 12:33:41;;;;;;;14.05;6.90;;;13.30;99.90;;;;;;5006407;28;20036;-67
2023/10/27 12:36:09;;;;;;;14.13;7.90;;;13.30;99.90;;;;;;5007008;28;20038;-66
2023/10/27 12:38:35;;;;;;;13.75;7.15;;;13.30;99.90;;;;;;5006048;28;20057;-66